sensor_id;sensor_type;location;lat;lon;timestamp;pressure;altitude;pressure_sealevel;temperature;humidity
21086;BME280;34247;50.064;19.970;2023-07-13T00:00:44;98887.69;;;24.87;80.14
21086;BME280;34247;50.064;19.970;2023-07-13T00:02:17;98886.44;;;24.90;80.27
21086;BME280;34247;50.064;19.970;2023-07-13T00:03:51;98893.75;;;24.89;79.88
21086;BME280;34247;50.064;19.970;2023-07-13T00:05:24;98898.13;;;24.90;80.14
21086;BME280;34247;50.064;19.970;2023-07-13T00:06:57;98895.84;;;24.87;80.19
21086;BME280;34247;50.064;19.970;2023-07-13T00:08:31;98888.09;;;24.84;80.13
21086;BME280;34247;50.064;19.970;2023-07-13T00:10:06;98900.19;;;24.82;80.41
21086;BME280;34247;50.064;19.970;2023-07-13T00:11:40;98897.50;;;24.82;80.47
21086;BME280;34247;50.064;19.970;2023-07-13T00:13:13;98917.09;;;24.84;80.33
21086;BME280;34247;50.064;19.970;2023-07-13T00:14:46;98909.19;;;24.82;80.47
21086;BME280;34247;50.064;19.970;2023-07-13T00:16:19;98898.31;;;24.82;80.36
21086;BME280;34247;50.064;19.970;2023-07-13T00:17:55;98894.97;;;24.80;80.25
21086;BME280;34247;50.064;19.970;2023-07-13T00:19:28;98907.94;;;24.78;80.52
21086;BME280;34247;50.064;19.970;2023-07-13T00:21:01;98915.41;;;24.76;80.31
21086;BME280;34247;50.064;19.970;2023-07-13T00:22:34;98915.25;;;24.78;80.65
21086;BME280;34247;50.064;19.970;2023-07-13T00:24:17;98913.53;;;24.76;80.44
21086;BME280;34247;50.064;19.970;2023-07-13T00:25:50;98912.31;;;24.79;80.74
21086;BME280;34247;50.064;19.970;2023-07-13T00:27:24;98911.28;;;24.80;80.89
21086;BME280;34247;50.064;19.970;2023-07-13T00:28:57;98904.78;;;24.81;81.10
21086;BME280;34247;50.064;19.970;2023-07-13T00:30:30;98908.34;;;24.82;80.99
21086;BME280;34247;50.064;19.970;2023-07-13T00:32:06;98916.47;;;24.82;81.21
21086;BME280;34247;50.064;19.970;2023-07-13T00:33:40;98910.22;;;24.81;81.48
21086;BME280;34247;50.064;19.970;2023-07-13T00:35:15;98913.16;;;24.80;81.80
21086;BME280;34247;50.064;19.970;2023-07-13T00:36:48;98912.50;;;24.71;82.56
21086;BME280;34247;50.064;19.970;2023-07-13T00:38:22;98909.97;;;24.63;83.40
21086;BME280;34247;50.064;19.970;2023-07-13T00:39:56;98910.59;;;24.58;84.25
21086;BME280;34247;50.064;19.970;2023-07-13T00:41:29;98919.31;;;24.54;84.78
21086;BME280;34247;50.064;19.970;2023-07-13T00:43:04;98927.00;;;24.43;85.89
21086;BME280;34247;50.064;19.970;2023-07-13T00:44:37;98939.50;;;24.38;86.91
21086;BME280;34247;50.064;19.970;2023-07-13T00:47:55;98931.06;;;24.19;89.88
21086;BME280;34247;50.064;19.970;2023-07-13T00:49:32;98936.03;;;24.16;90.90
21086;BME280;34247;50.064;19.970;2023-07-13T00:51:06;98942.28;;;24.16;91.58
21086;BME280;34247;50.064;19.970;2023-07-13T00:52:48;98933.31;;;24.16;92.02
21086;BME280;34247;50.064;19.970;2023-07-13T00:54:35;98931.19;;;24.11;92.43
21086;BME280;34247;50.064;19.970;2023-07-13T00:56:10;98910.50;;;24.04;92.85
21086;BME280;34247;50.064;19.970;2023-07-13T00:57:44;98904.66;;;24.00;93.53
21086;BME280;34247;50.064;19.970;2023-07-13T00:59:19;98921.97;;;23.99;94.22
21086;BME280;34247;50.064;19.970;2023-07-13T01:00:54;98925.72;;;23.98;94.35
21086;BME280;34247;50.064;19.970;2023-07-13T01:02:29;98939.44;;;23.97;94.92
21086;BME280;34247;50.064;19.970;2023-07-13T01:04:02;98928.75;;;23.88;95.40
21086;BME280;34247;50.064;19.970;2023-07-13T01:05:36;98921.88;;;23.86;96.23
21086;BME280;34247;50.064;19.970;2023-07-13T01:07:11;98931.03;;;23.85;96.61
21086;BME280;34247;50.064;19.970;2023-07-13T01:08:45;98918.72;;;23.82;97.04
21086;BME280;34247;50.064;19.970;2023-07-13T01:10:22;98915.16;;;23.82;97.23
21086;BME280;34247;50.064;19.970;2023-07-13T01:11:55;98919.53;;;23.83;97.64
21086;BME280;34247;50.064;19.970;2023-07-13T01:13:29;98915.38;;;23.80;97.78
21086;BME280;34247;50.064;19.970;2023-07-13T01:15:03;98926.00;;;23.82;98.23
21086;BME280;34247;50.064;19.970;2023-07-13T01:16:38;98921.19;;;23.77;98.31
21086;BME280;34247;50.064;19.970;2023-07-13T01:18:22;98915.38;;;23.80;98.84
21086;BME280;34247;50.064;19.970;2023-07-13T01:19:56;98916.84;;;23.83;98.81
21086;BME280;34247;50.064;19.970;2023-07-13T01:21:33;98929.38;;;23.84;98.96
21086;BME280;34247;50.064;19.970;2023-07-13T01:23:09;98926.84;;;23.82;99.32
21086;BME280;34247;50.064;19.970;2023-07-13T01:24:46;98929.13;;;23.79;99.41
21086;BME280;34247;50.064;19.970;2023-07-13T01:26:20;98928.66;;;23.75;100.00
21086;BME280;34247;50.064;19.970;2023-07-13T01:27:54;98927.59;;;23.70;100.00
21086;BME280;34247;50.064;19.970;2023-07-13T01:29:27;98926.13;;;23.67;100.00
21086;BME280;34247;50.064;19.970;2023-07-13T01:31:00;98921.72;;;23.66;100.00
21086;BME280;34247;50.064;19.970;2023-07-13T01:32:33;98906.72;;;23.63;100.00
21086;BME280;34247;50.064;19.970;2023-07-13T01:34:06;98909.97;;;23.59;100.00
21086;BME280;34247;50.064;19.970;2023-07-13T01:35:40;98913.09;;;23.56;100.00
21086;BME280;34247;50.064;19.970;2023-07-13T01:37:13;98909.34;;;23.57;100.00
21086;BME280;34247;50.064;19.970;2023-07-13T01:38:46;98890.59;;;23.55;100.00
21086;BME280;34247;50.064;19.970;2023-07-13T01:40:21;98895.81;;;23.57;100.00
21086;BME280;34247;50.064;19.970;2023-07-13T01:41:53;98891.81;;;23.53;100.00
21086;BME280;34247;50.064;19.970;2023-07-13T01:43:27;98900.13;;;23.51;100.00
21086;BME280;34247;50.064;19.970;2023-07-13T01:45:00;98892.63;;;23.47;100.00
21086;BME280;34247;50.064;19.970;2023-07-13T01:46:33;98877.16;;;23.41;100.00
21086;BME280;34247;50.064;19.970;2023-07-13T01:48:06;98879.84;;;23.41;100.00
21086;BME280;34247;50.064;19.970;2023-07-13T01:49:39;98884.22;;;23.42;100.00
21086;BME280;34247;50.064;19.970;2023-07-13T01:51:12;98877.16;;;23.41;100.00
21086;BME280;34247;50.064;19.970;2023-07-13T01:52:45;98886.31;;;23.39;100.00
21086;BME280;34247;50.064;19.970;2023-07-13T01:54:18;98874.63;;;23.39;100.00
21086;BME280;34247;50.064;19.970;2023-07-13T01:55:52;98861.69;;;23.34;100.00
21086;BME280;34247;50.064;19.970;2023-07-13T01:57:25;98863.09;;;23.30;100.00
21086;BME280;34247;50.064;19.970;2023-07-13T01:59:01;98864.97;;;23.30;100.00
21086;BME280;34247;50.064;19.970;2023-07-13T02:00:34;98860.00;;;23.33;100.00
21086;BME280;34247;50.064;19.970;2023-07-13T02:02:07;98849.81;;;23.35;100.00
21086;BME280;34247;50.064;19.970;2023-07-13T02:03:40;98840.44;;;23.38;100.00
21086;BME280;34247;50.064;19.970;2023-07-13T02:05:14;98833.38;;;23.37;100.00
21086;BME280;34247;50.064;19.970;2023-07-13T02:06:49;98837.09;;;23.36;100.00
21086;BME280;34247;50.064;19.970;2023-07-13T02:08:22;98849.41;;;23.38;100.00
21086;BME280;34247;50.064;19.970;2023-07-13T02:09:56;98851.75;;;23.42;100.00
21086;BME280;34247;50.064;19.970;2023-07-13T02:11:29;98847.53;;;23.39;100.00
21086;BME280;34247;50.064;19.970;2023-07-13T02:13:03;98842.53;;;23.36;100.00
21086;BME280;34247;50.064;19.970;2023-07-13T02:14:37;98834.81;;;23.33;100.00
21086;BME280;34247;50.064;19.970;2023-07-13T02:16:10;98837.69;;;23.31;100.00
21086;BME280;34247;50.064;19.970;2023-07-13T02:17:44;98831.22;;;23.26;100.00
21086;BME280;34247;50.064;19.970;2023-07-13T02:19:17;98826.19;;;23.23;100.00
21086;BME280;34247;50.064;19.970;2023-07-13T02:20:50;98821.16;;;23.20;100.00
21086;BME280;34247;50.064;19.970;2023-07-13T02:22:23;98817.38;;;23.14;100.00
21086;BME280;34247;50.064;19.970;2023-07-13T02:23:56;98818.84;;;23.17;100.00
21086;BME280;34247;50.064;19.970;2023-07-13T02:25:29;98816.97;;;23.17;100.00
21086;BME280;34247;50.064;19.970;2023-07-13T02:27:02;98816.34;;;23.15;100.00
21086;BME280;34247;50.064;19.970;2023-07-13T02:28:35;98819.03;;;23.15;100.00
21086;BME280;34247;50.064;19.970;2023-07-13T02:30:10;98820.06;;;23.14;100.00
21086;BME280;34247;50.064;19.970;2023-07-13T02:31:43;98829.88;;;23.15;100.00
21086;BME280;34247;50.064;19.970;2023-07-13T02:33:17;98825.50;;;23.14;100.00
21086;BME280;34247;50.064;19.970;2023-07-13T02:34:50;98832.16;;;23.11;100.00
21086;BME280;34247;50.064;19.970;2023-07-13T02:36:23;98826.91;;;23.10;100.00
21086;BME280;34247;50.064;19.970;2023-07-13T02:37:56;98836.72;;;23.11;100.00
21086;BME280;34247;50.064;19.970;2023-07-13T02:39:30;98840.63;;;23.08;100.00
21086;BME280;34247;50.064;19.970;2023-07-13T02:41:05;98827.03;;;23.02;100.00
21086;BME280;34247;50.064;19.970;2023-07-13T02:42:39;98832.03;;;22.98;100.00
21086;BME280;34247;50.064;19.970;2023-07-13T02:44:13;98840.34;;;22.97;100.00
21086;BME280;34247;50.064;19.970;2023-07-13T02:45:47;98837.19;;;22.93;100.00
21086;BME280;34247;50.064;19.970;2023-07-13T02:47:20;98838.41;;;22.91;100.00
21086;BME280;34247;50.064;19.970;2023-07-13T02:48:53;98844.88;;;22.90;100.00
21086;BME280;34247;50.064;19.970;2023-07-13T02:50:26;98852.97;;;22.90;100.00
21086;BME280;34247;50.064;19.970;2023-07-13T02:51:59;98853.81;;;22.90;100.00
21086;BME280;34247;50.064;19.970;2023-07-13T02:53:35;98850.66;;;22.87;100.00
21086;BME280;34247;50.064;19.970;2023-07-13T02:55:09;98847.94;;;22.87;100.00
21086;BME280;34247;50.064;19.970;2023-07-13T02:56:43;98851.28;;;22.89;100.00
21086;BME280;34247;50.064;19.970;2023-07-13T02:58:16;98858.75;;;22.87;100.00
21086;BME280;34247;50.064;19.970;2023-07-13T02:59:50;98858.56;;;22.88;100.00
21086;BME280;34247;50.064;19.970;2023-07-13T03:01:24;98859.88;;;22.92;100.00
21086;BME280;34247;50.064;19.970;2023-07-13T03:02:57;98859.88;;;22.92;100.00
21086;BME280;34247;50.064;19.970;2023-07-13T03:04:30;98859.66;;;22.94;100.00
21086;BME280;34247;50.064;19.970;2023-07-13T03:06:05;98857.16;;;22.92;100.00
21086;BME280;34247;50.064;19.970;2023-07-13T03:07:38;98851.75;;;22.92;100.00
21086;BME280;34247;50.064;19.970;2023-07-13T03:09:12;98851.94;;;22.91;100.00
21086;BME280;34247;50.064;19.970;2023-07-13T03:10:45;98851.75;;;22.92;100.00
21086;BME280;34247;50.064;19.970;2023-07-13T03:12:18;98848.00;;;22.93;100.00
21086;BME280;34247;50.064;19.970;2023-07-13T03:13:52;98859.66;;;22.94;100.00
21086;BME280;34247;50.064;19.970;2023-07-13T03:15:26;98852.78;;;22.91;100.00
21086;BME280;34247;50.064;19.970;2023-07-13T03:17:03;98868.19;;;22.91;100.00
21086;BME280;34247;50.064;19.970;2023-07-13T03:18:38;98867.50;;;22.89;100.00
21086;BME280;34247;50.064;19.970;2023-07-13T03:20:14;98870.88;;;22.91;100.00
21086;BME280;34247;50.064;19.970;2023-07-13T03:21:47;98877.56;;;22.95;100.00
21086;BME280;34247;50.064;19.970;2023-07-13T03:23:22;98870.13;;;22.97;100.00
21086;BME280;34247;50.064;19.970;2023-07-13T03:24:56;98871.13;;;22.96;100.00
21086;BME280;34247;50.064;19.970;2023-07-13T03:26:29;98872.81;;;22.97;100.00
21086;BME280;34247;50.064;19.970;2023-07-13T03:28:04;98866.13;;;22.93;100.00
21086;BME280;34247;50.064;19.970;2023-07-13T03:29:41;98867.59;;;22.95;100.00
21086;BME280;34247;50.064;19.970;2023-07-13T03:31:27;98859.13;;;22.83;100.00
21086;BME280;34247;50.064;19.970;2023-07-13T03:33:19;98867.16;;;22.92;100.00
21086;BME280;34247;50.064;19.970;2023-07-13T03:34:59;98871.78;;;22.98;100.00
21086;BME280;34247;50.064;19.970;2023-07-13T03:36:35;98882.81;;;22.96;100.00
21086;BME280;34247;50.064;19.970;2023-07-13T03:38:19;98876.94;;;22.93;100.00
21086;BME280;34247;50.064;19.970;2023-07-13T03:39:58;98881.94;;;22.96;100.00
21086;BME280;34247;50.064;19.970;2023-07-13T03:41:37;98881.78;;;22.97;100.00
21086;BME280;34247;50.064;19.970;2023-07-13T03:43:19;98878.22;;;22.97;100.00
21086;BME280;34247;50.064;19.970;2023-07-13T03:44:53;98877.44;;;23.03;100.00
21086;BME280;34247;50.064;19.970;2023-07-13T03:46:27;98852.56;;;22.93;100.00
21086;BME280;34247;50.064;19.970;2023-07-13T03:48:00;98863.91;;;23.03;100.00
21086;BME280;34247;50.064;19.970;2023-07-13T03:49:34;98870.41;;;23.08;100.00
21086;BME280;34247;50.064;19.970;2023-07-13T03:51:12;98867.75;;;23.15;100.00
21086;BME280;34247;50.064;19.970;2023-07-13T03:52:49;98855.28;;;23.14;100.00
21086;BME280;34247;50.064;19.970;2023-07-13T03:54:23;98854.44;;;23.14;100.00
21086;BME280;34247;50.064;19.970;2023-07-13T03:55:57;98841.09;;;23.12;100.00
21086;BME280;34247;50.064;19.970;2023-07-13T03:57:31;98850.28;;;23.18;100.00
21086;BME280;34247;50.064;19.970;2023-07-13T03:59:05;98844.88;;;23.18;100.00
21086;BME280;34247;50.064;19.970;2023-07-13T04:00:39;98841.16;;;23.19;100.00
21086;BME280;34247;50.064;19.970;2023-07-13T04:02:13;98837.84;;;23.23;100.00
21086;BME280;34247;50.064;19.970;2023-07-13T04:03:52;98840.81;;;23.28;100.00
21086;BME280;34247;50.064;19.970;2023-07-13T04:05:25;98845.63;;;23.33;100.00
21086;BME280;34247;50.064;19.970;2023-07-13T04:06:59;98859.19;;;23.33;100.00
21086;BME280;34247;50.064;19.970;2023-07-13T04:08:36;98857.09;;;23.35;100.00
21086;BME280;34247;50.064;19.970;2023-07-13T04:10:09;98862.31;;;23.36;100.00
21086;BME280;34247;50.064;19.970;2023-07-13T04:11:42;98873.78;;;23.38;100.00
21086;BME280;34247;50.064;19.970;2023-07-13T04:13:15;98872.09;;;23.37;100.00
21086;BME280;34247;50.064;19.970;2023-07-13T04:14:48;98869.81;;;23.34;100.00
21086;BME280;34247;50.064;19.970;2023-07-13T04:16:22;98872.72;;;23.33;100.00
21086;BME280;34247;50.064;19.970;2023-07-13T04:17:55;98865.81;;;23.30;100.00
21086;BME280;34247;50.064;19.970;2023-07-13T04:19:29;98869.19;;;23.32;100.00
21086;BME280;34247;50.064;19.970;2023-07-13T04:21:02;98870.00;;;23.33;100.00
21086;BME280;34247;50.064;19.970;2023-07-13T04:22:35;98877.28;;;23.32;100.00
21086;BME280;34247;50.064;19.970;2023-07-13T04:24:09;98880.84;;;23.33;100.00
21086;BME280;34247;50.064;19.970;2023-07-13T04:25:51;98887.09;;;23.33;100.00
21086;BME280;34247;50.064;19.970;2023-07-13T04:27:24;98887.09;;;23.33;100.00
21086;BME280;34247;50.064;19.970;2023-07-13T04:28:57;98891.66;;;23.33;100.00
21086;BME280;34247;50.064;19.970;2023-07-13T04:30:31;98896.75;;;23.43;100.00
21086;BME280;34247;50.064;19.970;2023-07-13T04:32:05;98891.75;;;23.46;100.00
21086;BME280;34247;50.064;19.970;2023-07-13T04:33:38;98892.06;;;23.58;100.00
21086;BME280;34247;50.064;19.970;2023-07-13T04:35:11;98891.16;;;23.72;100.00
21086;BME280;34247;50.064;19.970;2023-07-13T04:36:44;98894.97;;;23.84;100.00
21086;BME280;34247;50.064;19.970;2023-07-13T04:38:17;98896.31;;;24.02;100.00
21086;BME280;34247;50.064;19.970;2023-07-13T04:39:50;98903.69;;;24.14;100.00
21086;BME280;34247;50.064;19.970;2023-07-13T04:41:23;98897.47;;;24.20;100.00
21086;BME280;34247;50.064;19.970;2023-07-13T04:42:56;98891.44;;;24.32;100.00
21086;BME280;34247;50.064;19.970;2023-07-13T04:44:30;98903.22;;;24.45;100.00
21086;BME280;34247;50.064;19.970;2023-07-13T04:46:10;98914.53;;;24.56;100.00
21086;BME280;34247;50.064;19.970;2023-07-13T04:47:44;98911.44;;;24.65;100.00
21086;BME280;34247;50.064;19.970;2023-07-13T04:49:17;98907.09;;;24.78;99.49
21086;BME280;34247;50.064;19.970;2023-07-13T04:50:58;98898.56;;;24.94;98.26
21086;BME280;34247;50.064;19.970;2023-07-13T04:52:31;98896.75;;;25.08;97.25
21086;BME280;34247;50.064;19.970;2023-07-13T04:54:04;98886.50;;;25.23;95.84
21086;BME280;34247;50.064;19.970;2023-07-13T04:55:38;98888.41;;;25.42;94.37
21086;BME280;34247;50.064;19.970;2023-07-13T04:57:11;98879.81;;;25.52;93.50
21086;BME280;34247;50.064;19.970;2023-07-13T04:58:44;98878.53;;;25.61;92.42
21086;BME280;34247;50.064;19.970;2023-07-13T05:00:17;98873.94;;;25.68;92.28
21086;BME280;34247;50.064;19.970;2023-07-13T05:01:52;98869.56;;;25.74;92.01
21086;BME280;34247;50.064;19.970;2023-07-13T05:03:26;98859.50;;;25.81;91.03
21086;BME280;34247;50.064;19.970;2023-07-13T05:04:59;98865.56;;;25.90;90.54
21086;BME280;34247;50.064;19.970;2023-07-13T05:06:33;98865.06;;;26.06;89.63
21086;BME280;34247;50.064;19.970;2023-07-13T05:08:06;98860.16;;;26.28;88.31
21086;BME280;34247;50.064;19.970;2023-07-13T05:09:39;98862.16;;;26.59;86.44
21086;BME280;34247;50.064;19.970;2023-07-13T05:11:13;98850.72;;;26.82;84.85
21086;BME280;34247;50.064;19.970;2023-07-13T05:12:47;98863.72;;;27.11;83.27
21086;BME280;34247;50.064;19.970;2023-07-13T05:14:20;98873.34;;;27.39;81.63
21086;BME280;34247;50.064;19.970;2023-07-13T05:16:02;98869.72;;;27.70;79.63
21086;BME280;34247;50.064;19.970;2023-07-13T05:17:35;98867.38;;;27.92;77.82
21086;BME280;34247;50.064;19.970;2023-07-13T05:19:09;98868.53;;;28.21;76.38
21086;BME280;34247;50.064;19.970;2023-07-13T05:20:43;98869.66;;;28.50;74.39
21086;BME280;34247;50.064;19.970;2023-07-13T05:22:16;98876.41;;;28.77;73.28
21086;BME280;34247;50.064;19.970;2023-07-13T05:23:50;98880.44;;;29.05;71.60
21086;BME280;34247;50.064;19.970;2023-07-13T05:25:23;98878.22;;;29.25;70.28
21086;BME280;34247;50.064;19.970;2023-07-13T05:26:56;98868.78;;;29.51;68.93
21086;BME280;34247;50.064;19.970;2023-07-13T05:28:31;98866.28;;;29.73;67.34
21086;BME280;34247;50.064;19.970;2023-07-13T05:30:05;98862.72;;;29.84;66.20
21086;BME280;34247;50.064;19.970;2023-07-13T05:31:38;98861.13;;;29.88;66.38
21086;BME280;34247;50.064;19.970;2023-07-13T05:33:13;98867.44;;;29.89;66.10
21086;BME280;34247;50.064;19.970;2023-07-13T05:34:47;98865.91;;;29.93;65.83
21086;BME280;34247;50.064;19.970;2023-07-13T05:36:19;98868.38;;;29.94;65.56
21086;BME280;34247;50.064;19.970;2023-07-13T05:37:52;98864.69;;;30.01;65.47
21086;BME280;34247;50.064;19.970;2023-07-13T05:39:26;98869.22;;;30.07;65.21
21086;BME280;34247;50.064;19.970;2023-07-13T05:40:59;98856.59;;;30.17;64.56
21086;BME280;34247;50.064;19.970;2023-07-13T05:42:36;98856.56;;;30.29;63.88
21086;BME280;34247;50.064;19.970;2023-07-13T05:44:09;98855.69;;;30.40;63.11
21086;BME280;34247;50.064;19.970;2023-07-13T05:45:42;98854.59;;;30.41;62.54
21086;BME280;34247;50.064;19.970;2023-07-13T05:47:15;98850.34;;;30.34;62.14
21086;BME280;34247;50.064;19.970;2023-07-13T05:48:48;98856.06;;;30.32;62.18
21086;BME280;34247;50.064;19.970;2023-07-13T05:50:21;98857.88;;;30.27;62.00
21086;BME280;34247;50.064;19.970;2023-07-13T05:51:55;98852.38;;;30.27;61.94
21086;BME280;34247;50.064;19.970;2023-07-13T05:53:28;98847.91;;;30.20;61.75
21086;BME280;34247;50.064;19.970;2023-07-13T05:55:00;98847.69;;;30.10;62.32
21086;BME280;34247;50.064;19.970;2023-07-13T05:56:34;98856.50;;;30.01;62.60
21086;BME280;34247;50.064;19.970;2023-07-13T05:58:07;98859.22;;;29.89;63.34
21086;BME280;34247;50.064;19.970;2023-07-13T05:59:40;98857.81;;;29.86;63.50
21086;BME280;34247;50.064;19.970;2023-07-13T06:01:15;98858.53;;;29.93;63.30
21086;BME280;34247;50.064;19.970;2023-07-13T06:02:50;98858.41;;;30.00;63.12
21086;BME280;34247;50.064;19.970;2023-07-13T06:04:23;98857.66;;;30.05;62.71
21086;BME280;34247;50.064;19.970;2023-07-13T06:05:57;98859.31;;;30.06;63.04
21086;BME280;34247;50.064;19.970;2023-07-13T06:07:30;98859.72;;;30.09;63.04
21086;BME280;34247;50.064;19.970;2023-07-13T06:09:04;98864.47;;;30.14;62.68
21086;BME280;34247;50.064;19.970;2023-07-13T06:10:37;98864.66;;;30.24;62.40
21086;BME280;34247;50.064;19.970;2023-07-13T06:12:10;98862.50;;;30.26;61.89
21086;BME280;34247;50.064;19.970;2023-07-13T06:13:44;98867.28;;;30.31;61.71
21086;BME280;34247;50.064;19.970;2023-07-13T06:15:17;98864.16;;;30.39;61.37
21086;BME280;34247;50.064;19.970;2023-07-13T06:16:51;98864.25;;;30.44;61.62
21086;BME280;34247;50.064;19.970;2023-07-13T06:18:25;98860.53;;;30.50;61.46
21086;BME280;34247;50.064;19.970;2023-07-13T06:19:58;98858.72;;;30.56;61.09
21086;BME280;34247;50.064;19.970;2023-07-13T06:21:31;98858.72;;;30.67;60.64
21086;BME280;34247;50.064;19.970;2023-07-13T06:23:04;98867.72;;;30.80;60.18
21086;BME280;34247;50.064;19.970;2023-07-13T06:24:37;98846.47;;;30.87;60.02
21086;BME280;34247;50.064;19.970;2023-07-13T06:26:11;98847.97;;;30.94;59.55
21086;BME280;34247;50.064;19.970;2023-07-13T06:27:44;98844.31;;;31.06;58.93
21086;BME280;34247;50.064;19.970;2023-07-13T06:29:17;98850.72;;;31.11;58.98
21086;BME280;34247;50.064;19.970;2023-07-13T06:30:50;98849.84;;;31.22;58.06
21086;BME280;34247;50.064;19.970;2023-07-13T06:32:23;98840.59;;;31.28;57.98
21086;BME280;34247;50.064;19.970;2023-07-13T06:33:56;98841.78;;;31.33;57.98
21086;BME280;34247;50.064;19.970;2023-07-13T06:35:30;98844.09;;;31.41;57.83
21086;BME280;34247;50.064;19.970;2023-07-13T06:37:06;98849.97;;;31.49;57.64
21086;BME280;34247;50.064;19.970;2023-07-13T06:38:39;98841.84;;;31.54;57.33
21086;BME280;34247;50.064;19.970;2023-07-13T06:40:12;98841.94;;;31.60;56.93
21086;BME280;34247;50.064;19.970;2023-07-13T06:41:46;98852.03;;;31.76;56.80
21086;BME280;34247;50.064;19.970;2023-07-13T06:43:19;98853.03;;;31.87;55.99
21086;BME280;34247;50.064;19.970;2023-07-13T06:44:51;98862.75;;;31.94;55.71
21086;BME280;34247;50.064;19.970;2023-07-13T06:46:25;98853.75;;;31.99;55.44
21086;BME280;34247;50.064;19.970;2023-07-13T06:47:58;98856.22;;;32.00;55.98
21086;BME280;34247;50.064;19.970;2023-07-13T06:49:31;98851.53;;;31.96;55.64
21086;BME280;34247;50.064;19.970;2023-07-13T06:51:05;98855.59;;;31.93;55.77
21086;BME280;34247;50.064;19.970;2023-07-13T06:52:37;98861.34;;;31.92;55.77
21086;BME280;34247;50.064;19.970;2023-07-13T06:54:11;98861.03;;;31.88;55.86
21086;BME280;34247;50.064;19.970;2023-07-13T06:55:44;98863.50;;;31.90;55.65
21086;BME280;34247;50.064;19.970;2023-07-13T06:57:18;98865.25;;;31.96;55.90
21086;BME280;34247;50.064;19.970;2023-07-13T06:58:53;98867.28;;;32.05;55.62
21086;BME280;34247;50.064;19.970;2023-07-13T07:00:27;98871.00;;;32.16;55.51
21086;BME280;34247;50.064;19.970;2023-07-13T07:02:00;98868.13;;;32.28;55.13
21086;BME280;34247;50.064;19.970;2023-07-13T07:03:33;98871.53;;;32.35;54.84
21086;BME280;34247;50.064;19.970;2023-07-13T07:05:07;98878.16;;;32.61;53.99
21086;BME280;34247;50.064;19.970;2023-07-13T07:06:40;98868.69;;;33.01;53.24
21086;BME280;34247;50.064;19.970;2023-07-13T07:08:13;98873.78;;;33.46;51.85
21086;BME280;34247;50.064;19.970;2023-07-13T07:09:46;98877.59;;;33.82;50.65
21086;BME280;34247;50.064;19.970;2023-07-13T07:11:25;98870.66;;;34.17;49.70
21086;BME280;34247;50.064;19.970;2023-07-13T07:12:58;98874.06;;;34.39;49.11
21086;BME280;34247;50.064;19.970;2023-07-13T07:14:32;98867.28;;;34.57;47.69
21086;BME280;34247;50.064;19.970;2023-07-13T07:16:05;98874.47;;;34.83;47.06
21086;BME280;34247;50.064;19.970;2023-07-13T07:17:38;98873.72;;;35.19;45.95
21086;BME280;34247;50.064;19.970;2023-07-13T07:19:11;98870.69;;;35.56;44.89
21086;BME280;34247;50.064;19.970;2023-07-13T07:20:45;98876.75;;;35.94;43.54
21086;BME280;34247;50.064;19.970;2023-07-13T07:22:18;98873.91;;;36.14;42.99
21086;BME280;34247;50.064;19.970;2023-07-13T07:23:52;98872.25;;;36.18;42.79
21086;BME280;34247;50.064;19.970;2023-07-13T07:25:25;98877.53;;;36.09;42.99
21086;BME280;34247;50.064;19.970;2023-07-13T07:26:58;98878.06;;;36.06;42.85
21086;BME280;34247;50.064;19.970;2023-07-13T07:28:34;98872.00;;;36.14;43.01
21086;BME280;34247;50.064;19.970;2023-07-13T07:30:11;98865.91;;;36.17;42.59
21086;BME280;34247;50.064;19.970;2023-07-13T07:31:47;98858.19;;;36.09;42.79
21086;BME280;34247;50.064;19.970;2023-07-13T07:33:36;98850.44;;;36.16;42.44
21086;BME280;34247;50.064;19.970;2023-07-13T07:35:09;98857.31;;;36.24;41.94
21086;BME280;34247;50.064;19.970;2023-07-13T07:36:43;98849.28;;;36.38;41.69
21086;BME280;34247;50.064;19.970;2023-07-13T07:38:19;98850.34;;;36.37;41.28
21086;BME280;34247;50.064;19.970;2023-07-13T07:39:56;98853.50;;;36.15;41.55
21086;BME280;34247;50.064;19.970;2023-07-13T07:41:31;98841.34;;;36.06;41.71
21086;BME280;34247;50.064;19.970;2023-07-13T07:43:10;98851.28;;;36.07;41.80
21086;BME280;34247;50.064;19.970;2023-07-13T07:44:50;98846.88;;;36.11;41.93
21086;BME280;34247;50.064;19.970;2023-07-13T07:46:24;98854.03;;;36.17;41.50
21086;BME280;34247;50.064;19.970;2023-07-13T07:48:00;98845.22;;;36.10;41.38
21086;BME280;34247;50.064;19.970;2023-07-13T07:49:34;98843.06;;;35.97;41.34
21086;BME280;34247;50.064;19.970;2023-07-13T07:51:10;98848.31;;;35.93;41.12
21086;BME280;34247;50.064;19.970;2023-07-13T07:52:43;98846.34;;;35.99;40.85
21086;BME280;34247;50.064;19.970;2023-07-13T07:54:17;98844.13;;;36.06;40.61
21086;BME280;34247;50.064;19.970;2023-07-13T07:56:10;98843.59;;;35.99;40.75
21086;BME280;34247;50.064;19.970;2023-07-13T07:57:49;98844.19;;;35.85;40.57
21086;BME280;34247;50.064;19.970;2023-07-13T07:59:25;98842.81;;;35.68;40.77
21086;BME280;34247;50.064;19.970;2023-07-13T08:01:05;98848.66;;;35.51;41.18
21086;BME280;34247;50.064;19.970;2023-07-13T08:02:43;98848.91;;;35.24;41.61
21086;BME280;34247;50.064;19.970;2023-07-13T08:04:19;98855.78;;;35.11;41.42
21086;BME280;34247;50.064;19.970;2023-07-13T08:05:55;98848.63;;;34.95;41.91
21086;BME280;34247;50.064;19.970;2023-07-13T08:07:48;98852.41;;;34.63;42.23
21086;BME280;34247;50.064;19.970;2023-07-13T08:09:22;98854.56;;;34.46;42.34
21086;BME280;34247;50.064;19.970;2023-07-13T08:10:55;98860.81;;;34.31;42.81
21086;BME280;34247;50.064;19.970;2023-07-13T08:12:41;98859.66;;;34.12;43.17